Bountiful, UT

5:32 AM MDT on May 06, 2015 (GMT -0600)
KUTBOUNT14 | | Change Station
CLOSE
Current Station
Personal Weather Station
Location: Rogo's Weather Station (EW2533): Bountiful Bench, UT
Elevation: 5114 ft
Nearby Weather Stations

Elev 5114 ft 40.90 °N, 111.85 °W | Updated 22 seconds ago

Overcast
Overcast
50.8 °F
Feels Like 50.8 °F
N
1.0
Wind Variable Wind from ENE
Gusts 4.0 mph

Today
High -- | Low -- °F
--% Chance of Precip.
Yesterday
High -- | Low -- °F
Precip. -- in
6:19 AM 8:29 PM
Waning Gibbous, 94% visible
Pressure 29.71 in
Visibility 10.0 miles
Clouds Scattered Clouds 5500 ft
Overcast 13000 ft
Dew Point 45 °F
Humidity 81%
Rainfall 0.00 in
Snow Depth Not available.
UV 0 out of 12
Pollen 7.40 out of 12
Air Quality Not available.
Flu Activity Regional
METAR KSLC 061053Z 12008KT 10SM SCT055 OVC130 12/09 A2982 RMK AO2 SLP061 T01220094

More Conditions Fewer Conditions

Pressure 29.71 in
Visibility 10.0 miles
Clouds Scattered Clouds 5500 ft
Overcast 13000 ft
Dew Point 45 °F
Humidity 81%
Rainfall 0.00 in
Snow Depth Not available.
UV 0 out of 12
Pollen 7.40 out of 12
Air Quality Not available.
Flu Activity Regional
METAR KSLC 061053Z 12008KT 10SM SCT055 OVC130 12/09 A2982 RMK AO2 SLP061 T01220094

More Conditions Fewer Conditions

10-Day Weather Forecast

Almanac

Astronomy

May. 06, 2015 Rise Set
Actual Time
Civil Twilight
Nautical Twilight
Astronomical Twilight
Moon
Length of Visible Light
Length of Day
Tomorrow will be .
, % of the Moon is Illuminated

Today's Extremes

State Highs State Lows

Community

WunderPhotos

Upload Photos

1,818,880 photos uploaded!

WunderBlogs® & News

Nearby

Air Quality

  Air Quality AQ Index Pollutant
Not available.

Snow Depth

Station Depth Elevation

Earthquake Activity

City Distance Mag. Time & Date
Minimum magnitude displayed is 2.5.

Coastal Water Temperatures

Place Temperature

Stations

Nearby Weather Stations

Station Location Temp. Windchill Dew Point Humidity Wind Precip. Elev Updated Type